Terminal Aerodrome Forecast
Issued by NWS Wilmington, OH

Current Version | Previous Version | Text Only | Print | Product List | Glossary Off
Versions: 1 2 3 4 5 6 7 8 9 10 11 12 13 14

000
FTUS41 KILN 261129
TAFILN
TAF
KILN 261129Z 2612/2712 00000KT P6SM SCT080
     FM261400 28014G18KT P6SM SCT060
     FM270100 26007KT P6SM SCT060 BKN100
     FM270700 27004KT P6SM FEW050=

USA.gov is the U.S. government's official web portal to all federal, state and local government web resources and services.